sensor_id;sensor_type;location;lat;lon;timestamp;temperature;humidity
42147;DHT22;27815;43.410;11.852;2022-10-31T00:03:21;13.10;70.40
42147;DHT22;27815;43.410;11.852;2022-10-31T00:07:24;13.10;70.50
42147;DHT22;27815;43.410;11.852;2022-10-31T00:11:28;13.00;70.50
42147;DHT22;27815;43.410;11.852;2022-10-31T00:15:33;13.10;70.60
42147;DHT22;27815;43.410;11.852;2022-10-31T00:19:36;13.00;70.70
42147;DHT22;27815;43.410;11.852;2022-10-31T00:23:39;13.00;70.60
42147;DHT22;27815;43.410;11.852;2022-10-31T00:27:42;12.90;70.70
42147;DHT22;27815;43.410;11.852;2022-10-31T00:31:46;12.80;70.70
42147;DHT22;27815;43.410;11.852;2022-10-31T00:35:50;12.80;70.90
42147;DHT22;27815;43.410;11.852;2022-10-31T00:39:53;12.80;71.00
42147;DHT22;27815;43.410;11.852;2022-10-31T00:43:56;12.70;70.80
42147;DHT22;27815;43.410;11.852;2022-10-31T00:47:59;12.60;70.80
42147;DHT22;27815;43.410;11.852;2022-10-31T00:52:02;12.60;70.90
42147;DHT22;27815;43.410;11.852;2022-10-31T00:56:05;12.50;71.10
42147;DHT22;27815;43.410;11.852;2022-10-31T01:00:09;12.50;71.10
42147;DHT22;27815;43.410;11.852;2022-10-31T01:04:12;12.50;71.20
42147;DHT22;27815;43.410;11.852;2022-10-31T01:08:15;12.50;71.10
42147;DHT22;27815;43.410;11.852;2022-10-31T01:12:18;12.40;71.20
42147;DHT22;27815;43.410;11.852;2022-10-31T01:16:23;12.40;71.20
42147;DHT22;27815;43.410;11.852;2022-10-31T01:20:26;12.30;71.30
42147;DHT22;27815;43.410;11.852;2022-10-31T01:24:30;12.30;71.50
42147;DHT22;27815;43.410;11.852;2022-10-31T01:28:34;12.30;71.50
42147;DHT22;27815;43.410;11.852;2022-10-31T01:32:37;12.20;71.70
42147;DHT22;27815;43.410;11.852;2022-10-31T01:36:41;12.20;71.80
42147;DHT22;27815;43.410;11.852;2022-10-31T01:40:44;12.10;72.00
42147;DHT22;27815;43.410;11.852;2022-10-31T01:44:59;12.10;72.10
42147;DHT22;27815;43.410;11.852;2022-10-31T01:49:05;12.10;72.40
42147;DHT22;27815;43.410;11.852;2022-10-31T01:53:11;12.10;72.50
42147;DHT22;27815;43.410;11.852;2022-10-31T01:57:16;12.10;72.50
42147;DHT22;27815;43.410;11.852;2022-10-31T02:01:20;12.20;72.50
42147;DHT22;27815;43.410;11.852;2022-10-31T02:05:26;12.10;72.30
42147;DHT22;27815;43.410;11.852;2022-10-31T02:09:31;12.10;72.40
42147;DHT22;27815;43.410;11.852;2022-10-31T02:13:37;12.00;72.40
42147;DHT22;27815;43.410;11.852;2022-10-31T02:17:42;12.00;72.20
42147;DHT22;27815;43.410;11.852;2022-10-31T02:22:13;12.00;72.20
42147;DHT22;27815;43.410;11.852;2022-10-31T02:26:34;11.90;72.60
42147;DHT22;27815;43.410;11.852;2022-10-31T02:31:07;11.90;72.60
42147;DHT22;27815;43.410;11.852;2022-10-31T02:39:37;11.60;72.50
42147;DHT22;27815;43.410;11.852;2022-10-31T02:47:50;11.70;72.90
42147;DHT22;27815;43.410;11.852;2022-10-31T02:51:53;11.70;73.00
42147;DHT22;27815;43.410;11.852;2022-10-31T02:56:04;11.70;73.00
42147;DHT22;27815;43.410;11.852;2022-10-31T03:00:09;11.70;73.20
42147;DHT22;27815;43.410;11.852;2022-10-31T03:08:42;11.60;73.30
42147;DHT22;27815;43.410;11.852;2022-10-31T03:17:05;11.60;73.80
42147;DHT22;27815;43.410;11.852;2022-10-31T03:21:16;11.60;73.60
42147;DHT22;27815;43.410;11.852;2022-10-31T03:25:23;11.60;73.70
42147;DHT22;27815;43.410;11.852;2022-10-31T03:29:34;11.50;73.50
42147;DHT22;27815;43.410;11.852;2022-10-31T03:33:40;11.60;73.50
42147;DHT22;27815;43.410;11.852;2022-10-31T03:37:46;11.50;73.40
42147;DHT22;27815;43.410;11.852;2022-10-31T03:42:06;11.40;73.50
42147;DHT22;27815;43.410;11.852;2022-10-31T03:46:10;11.30;73.80
42147;DHT22;27815;43.410;11.852;2022-10-31T03:50:14;11.20;73.50
42147;DHT22;27815;43.410;11.852;2022-10-31T03:54:43;11.30;73.60
42147;DHT22;27815;43.410;11.852;2022-10-31T03:59:06;11.20;73.70
42147;DHT22;27815;43.410;11.852;2022-10-31T04:03:23;11.10;74.20
42147;DHT22;27815;43.410;11.852;2022-10-31T04:07:37;11.10;73.90
42147;DHT22;27815;43.410;11.852;2022-10-31T04:11:48;11.10;74.00
42147;DHT22;27815;43.410;11.852;2022-10-31T04:16:09;11.10;73.90
42147;DHT22;27815;43.410;11.852;2022-10-31T04:20:18;11.00;73.70
42147;DHT22;27815;43.410;11.852;2022-10-31T04:24:35;11.00;73.90
42147;DHT22;27815;43.410;11.852;2022-10-31T04:28:38;11.00;73.90
42147;DHT22;27815;43.410;11.852;2022-10-31T04:32:42;10.90;74.10
42147;DHT22;27815;43.410;11.852;2022-10-31T04:36:45;10.80;74.40
42147;DHT22;27815;43.410;11.852;2022-10-31T04:40:51;10.90;74.50
42147;DHT22;27815;43.410;11.852;2022-10-31T04:45:15;11.00;74.40
42147;DHT22;27815;43.410;11.852;2022-10-31T04:49:25;11.00;74.30
42147;DHT22;27815;43.410;11.852;2022-10-31T04:53:29;10.90;74.40
42147;DHT22;27815;43.410;11.852;2022-10-31T04:57:50;10.90;74.30
42147;DHT22;27815;43.410;11.852;2022-10-31T05:01:57;10.80;74.20
42147;DHT22;27815;43.410;11.852;2022-10-31T05:06:18;10.70;74.30
42147;DHT22;27815;43.410;11.852;2022-10-31T05:10:24;10.60;74.70
42147;DHT22;27815;43.410;11.852;2022-10-31T05:14:27;10.70;75.00
42147;DHT22;27815;43.410;11.852;2022-10-31T05:18:48;10.60;74.90
42147;DHT22;27815;43.410;11.852;2022-10-31T05:23:20;10.50;75.10
42147;DHT22;27815;43.410;11.852;2022-10-31T05:27:23;10.40;75.00
42147;DHT22;27815;43.410;11.852;2022-10-31T05:31:26;10.40;74.90
42147;DHT22;27815;43.410;11.852;2022-10-31T05:35:32;10.40;74.90
42147;DHT22;27815;43.410;11.852;2022-10-31T05:39:57;10.40;75.20
42147;DHT22;27815;43.410;11.852;2022-10-31T05:44:05;10.30;75.00
42147;DHT22;27815;43.410;11.852;2022-10-31T05:48:23;10.30;74.90
42147;DHT22;27815;43.410;11.852;2022-10-31T05:52:55;10.30;75.10
42147;DHT22;27815;43.410;11.852;2022-10-31T05:57:06;10.30;75.50
42147;DHT22;27815;43.410;11.852;2022-10-31T06:01:12;10.50;75.40
42147;DHT22;27815;43.410;11.852;2022-10-31T06:05:16;10.50;75.70
42147;DHT22;27815;43.410;11.852;2022-10-31T06:09:19;10.60;75.40
42147;DHT22;27815;43.410;11.852;2022-10-31T06:13:22;10.70;75.30
42147;DHT22;27815;43.410;11.852;2022-10-31T06:17:36;10.70;75.20
42147;DHT22;27815;43.410;11.852;2022-10-31T06:21:45;10.80;75.20
42147;DHT22;27815;43.410;11.852;2022-10-31T06:25:51;10.80;75.10
42147;DHT22;27815;43.410;11.852;2022-10-31T06:29:54;10.80;75.30
42147;DHT22;27815;43.410;11.852;2022-10-31T06:34:03;10.90;74.90
42147;DHT22;27815;43.410;11.852;2022-10-31T06:38:07;11.00;74.80
42147;DHT22;27815;43.410;11.852;2022-10-31T06:42:20;11.00;74.70
42147;DHT22;27815;43.410;11.852;2022-10-31T06:46:28;10.80;74.80
42147;DHT22;27815;43.410;11.852;2022-10-31T06:50:49;10.80;75.10
42147;DHT22;27815;43.410;11.852;2022-10-31T06:55:13;10.70;75.10
42147;DHT22;27815;43.410;11.852;2022-10-31T06:59:56;10.80;75.20
42147;DHT22;27815;43.410;11.852;2022-10-31T07:04:36;11.00;75.10
42147;DHT22;27815;43.410;11.852;2022-10-31T07:08:58;11.30;74.90
42147;DHT22;27815;43.410;11.852;2022-10-31T07:13:16;11.60;75.20
42147;DHT22;27815;43.410;11.852;2022-10-31T07:23:47;12.30;75.20
42147;DHT22;27815;43.410;11.852;2022-10-31T07:28:19;12.60;74.60
42147;DHT22;27815;43.410;11.852;2022-10-31T07:32:38;12.80;74.40
42147;DHT22;27815;43.410;11.852;2022-10-31T07:36:42;13.00;74.90
42147;DHT22;27815;43.410;11.852;2022-10-31T07:40:51;13.20;74.30
42147;DHT22;27815;43.410;11.852;2022-10-31T07:44:58;13.30;74.20
42147;DHT22;27815;43.410;11.852;2022-10-31T07:49:27;13.40;74.20
42147;DHT22;27815;43.410;11.852;2022-10-31T07:53:48;13.50;74.20
42147;DHT22;27815;43.410;11.852;2022-10-31T08:02:07;13.70;74.20
42147;DHT22;27815;43.410;11.852;2022-10-31T08:06:22;13.80;74.00
42147;DHT22;27815;43.410;11.852;2022-10-31T08:10:44;14.00;73.20
42147;DHT22;27815;43.410;11.852;2022-10-31T08:14:47;14.10;73.70
42147;DHT22;27815;43.410;11.852;2022-10-31T08:18:53;14.40;73.70
42147;DHT22;27815;43.410;11.852;2022-10-31T08:23:00;14.50;73.50
42147;DHT22;27815;43.410;11.852;2022-10-31T08:27:04;15.00;73.40
42147;DHT22;27815;43.410;11.852;2022-10-31T08:31:08;15.50;72.70
42147;DHT22;27815;43.410;11.852;2022-10-31T08:35:15;15.80;72.20
42147;DHT22;27815;43.410;11.852;2022-10-31T08:39:50;16.00;71.70
42147;DHT22;27815;43.410;11.852;2022-10-31T08:43:53;16.20;71.50
42147;DHT22;27815;43.410;11.852;2022-10-31T08:48:04;16.40;71.00
42147;DHT22;27815;43.410;11.852;2022-10-31T08:52:08;16.50;70.60
42147;DHT22;27815;43.410;11.852;2022-10-31T08:56:16;16.80;70.40
42147;DHT22;27815;43.410;11.852;2022-10-31T09:00:20;17.00;70.10
42147;DHT22;27815;43.410;11.852;2022-10-31T09:04:36;17.30;69.80
42147;DHT22;27815;43.410;11.852;2022-10-31T09:08:39;17.60;69.00
42147;DHT22;27815;43.410;11.852;2022-10-31T09:12:42;17.80;68.80
42147;DHT22;27815;43.410;11.852;2022-10-31T09:17:08;18.00;68.70
42147;DHT22;27815;43.410;11.852;2022-10-31T09:21:28;18.10;68.20
42147;DHT22;27815;43.410;11.852;2022-10-31T09:25:34;18.20;67.90
42147;DHT22;27815;43.410;11.852;2022-10-31T09:30:07;18.50;67.60
42147;DHT22;27815;43.410;11.852;2022-10-31T09:34:10;18.60;67.00
42147;DHT22;27815;43.410;11.852;2022-10-31T09:38:21;19.00;66.10
42147;DHT22;27815;43.410;11.852;2022-10-31T09:46:50;19.20;65.30
42147;DHT22;27815;43.410;11.852;2022-10-31T09:51:03;19.50;64.80
42147;DHT22;27815;43.410;11.852;2022-10-31T09:55:31;19.60;64.40
42147;DHT22;27815;43.410;11.852;2022-10-31T09:59:39;19.70;64.10
42147;DHT22;27815;43.410;11.852;2022-10-31T10:03:47;19.90;64.20
42147;DHT22;27815;43.410;11.852;2022-10-31T10:08:23;20.20;63.10
42147;DHT22;27815;43.410;11.852;2022-10-31T10:17:41;20.80;62.20
42147;DHT22;27815;43.410;11.852;2022-10-31T10:22:15;20.90;61.90
42147;DHT22;27815;43.410;11.852;2022-10-31T10:26:31;21.10;60.80
42147;DHT22;27815;43.410;11.852;2022-10-31T10:39:30;21.30;59.60
42147;DHT22;27815;43.410;11.852;2022-10-31T10:43:38;21.60;59.20
42147;DHT22;27815;43.410;11.852;2022-10-31T10:47:43;21.80;58.50
42147;DHT22;27815;43.410;11.852;2022-10-31T10:51:59;22.00;57.60
42147;DHT22;27815;43.410;11.852;2022-10-31T10:56:35;22.20;57.90
42147;DHT22;27815;43.410;11.852;2022-10-31T11:00:41;22.30;57.40
42147;DHT22;27815;43.410;11.852;2022-10-31T11:04:49;22.30;56.90
42147;DHT22;27815;43.410;11.852;2022-10-31T11:08:53;22.50;56.60
42147;DHT22;27815;43.410;11.852;2022-10-31T11:13:14;22.50;55.90
42147;DHT22;27815;43.410;11.852;2022-10-31T11:21:30;22.70;55.90
42147;DHT22;27815;43.410;11.852;2022-10-31T11:25:38;23.00;55.90
42147;DHT22;27815;43.410;11.852;2022-10-31T11:29:41;23.20;54.80
42147;DHT22;27815;43.410;11.852;2022-10-31T11:37:48;23.60;53.80
42147;DHT22;27815;43.410;11.852;2022-10-31T11:41:54;24.00;52.60
42147;DHT22;27815;43.410;11.852;2022-10-31T11:45:57;24.20;51.90
42147;DHT22;27815;43.410;11.852;2022-10-31T11:50:10;24.50;51.10
42147;DHT22;27815;43.410;11.852;2022-10-31T11:54:21;24.50;51.20
42147;DHT22;27815;43.410;11.852;2022-10-31T11:58:27;24.70;50.80
42147;DHT22;27815;43.410;11.852;2022-10-31T12:02:30;24.90;50.00
42147;DHT22;27815;43.410;11.852;2022-10-31T12:06:36;25.00;49.20
42147;DHT22;27815;43.410;11.852;2022-10-31T12:15:27;25.00;48.80
42147;DHT22;27815;43.410;11.852;2022-10-31T12:19:54;25.20;49.20
42147;DHT22;27815;43.410;11.852;2022-10-31T12:33:59;25.10;48.00
42147;DHT22;27815;43.410;11.852;2022-10-31T12:50:31;25.20;47.30
42147;DHT22;27815;43.410;11.852;2022-10-31T12:59:44;25.10;46.90
42147;DHT22;27815;43.410;11.852;2022-10-31T13:08:52;25.10;46.60
42147;DHT22;27815;43.410;11.852;2022-10-31T13:13:03;25.20;47.10
42147;DHT22;27815;43.410;11.852;2022-10-31T13:17:21;25.10;46.10
42147;DHT22;27815;43.410;11.852;2022-10-31T13:21:38;25.10;46.60
42147;DHT22;27815;43.410;11.852;2022-10-31T13:25:46;25.10;47.30
42147;DHT22;27815;43.410;11.852;2022-10-31T13:30:17;25.00;46.90
42147;DHT22;27815;43.410;11.852;2022-10-31T13:38:59;25.00;46.80
42147;DHT22;27815;43.410;11.852;2022-10-31T13:43:23;25.10;47.00
42147;DHT22;27815;43.410;11.852;2022-10-31T13:47:28;25.10;47.10
42147;DHT22;27815;43.410;11.852;2022-10-31T13:51:33;25.00;47.00
42147;DHT22;27815;43.410;11.852;2022-10-31T14:00:03;25.10;46.90
42147;DHT22;27815;43.410;11.852;2022-10-31T14:04:36;25.20;45.90
42147;DHT22;27815;43.410;11.852;2022-10-31T14:08:50;25.20;47.30
42147;DHT22;27815;43.410;11.852;2022-10-31T14:13:18;25.20;46.70
42147;DHT22;27815;43.410;11.852;2022-10-31T14:17:25;25.10;46.70
42147;DHT22;27815;43.410;11.852;2022-10-31T14:21:41;25.10;46.30
42147;DHT22;27815;43.410;11.852;2022-10-31T14:25:44;25.10;46.80
42147;DHT22;27815;43.410;11.852;2022-10-31T14:29:47;25.10;46.20
42147;DHT22;27815;43.410;11.852;2022-10-31T14:33:53;25.20;46.20
42147;DHT22;27815;43.410;11.852;2022-10-31T14:38:15;25.20;46.20
42147;DHT22;27815;43.410;11.852;2022-10-31T14:52:18;25.40;46.80
42147;DHT22;27815;43.410;11.852;2022-10-31T14:56:35;25.30;46.70
42147;DHT22;27815;43.410;11.852;2022-10-31T15:00:44;25.40;47.00
42147;DHT22;27815;43.410;11.852;2022-10-31T15:05:06;25.30;47.50
42147;DHT22;27815;43.410;11.852;2022-10-31T15:09:32;25.40;48.30
42147;DHT22;27815;43.410;11.852;2022-10-31T15:13:42;25.40;49.00
42147;DHT22;27815;43.410;11.852;2022-10-31T15:18:00;25.40;48.70
42147;DHT22;27815;43.410;11.852;2022-10-31T15:22:13;25.30;50.30
42147;DHT22;27815;43.410;11.852;2022-10-31T15:26:22;25.10;51.20
42147;DHT22;27815;43.410;11.852;2022-10-31T15:30:28;24.80;51.60
42147;DHT22;27815;43.410;11.852;2022-10-31T15:34:42;24.50;52.20
42147;DHT22;27815;43.410;11.852;2022-10-31T15:38:45;24.20;52.60
42147;DHT22;27815;43.410;11.852;2022-10-31T15:43:04;23.80;53.40
42147;DHT22;27815;43.410;11.852;2022-10-31T15:47:19;23.40;53.60
42147;DHT22;27815;43.410;11.852;2022-10-31T15:51:31;23.00;54.70
42147;DHT22;27815;43.410;11.852;2022-10-31T15:55:45;22.70;54.90
42147;DHT22;27815;43.410;11.852;2022-10-31T15:59:50;22.30;55.50
42147;DHT22;27815;43.410;11.852;2022-10-31T16:04:22;22.00;55.90
42147;DHT22;27815;43.410;11.852;2022-10-31T16:12:43;21.20;56.90
42147;DHT22;27815;43.410;11.852;2022-10-31T16:16:51;20.90;57.30
42147;DHT22;27815;43.410;11.852;2022-10-31T16:20:56;20.70;57.90
42147;DHT22;27815;43.410;11.852;2022-10-31T16:25:09;20.40;57.80
42147;DHT22;27815;43.410;11.852;2022-10-31T16:33:41;19.90;58.70
42147;DHT22;27815;43.410;11.852;2022-10-31T16:37:45;19.70;58.70
42147;DHT22;27815;43.410;11.852;2022-10-31T16:41:51;19.60;59.00
42147;DHT22;27815;43.410;11.852;2022-10-31T16:45:55;19.50;59.10
42147;DHT22;27815;43.410;11.852;2022-10-31T16:49:58;19.30;59.10
42147;DHT22;27815;43.410;11.852;2022-10-31T16:54:02;19.20;59.40
42147;DHT22;27815;43.410;11.852;2022-10-31T16:58:10;19.10;59.50
42147;DHT22;27815;43.410;11.852;2022-10-31T17:02:15;19.00;59.80
42147;DHT22;27815;43.410;11.852;2022-10-31T17:06:19;19.00;59.90
42147;DHT22;27815;43.410;11.852;2022-10-31T17:10:23;18.80;60.00
42147;DHT22;27815;43.410;11.852;2022-10-31T17:14:26;18.80;60.20
42147;DHT22;27815;43.410;11.852;2022-10-31T17:18:29;18.70;60.40
42147;DHT22;27815;43.410;11.852;2022-10-31T17:22:33;18.60;60.40
42147;DHT22;27815;43.410;11.852;2022-10-31T17:26:36;18.50;60.50
42147;DHT22;27815;43.410;11.852;2022-10-31T17:30:40;18.50;60.80
42147;DHT22;27815;43.410;11.852;2022-10-31T17:34:43;18.50;61.10
42147;DHT22;27815;43.410;11.852;2022-10-31T17:38:48;18.50;61.10
42147;DHT22;27815;43.410;11.852;2022-10-31T17:42:53;18.50;61.30
42147;DHT22;27815;43.410;11.852;2022-10-31T17:46:56;18.50;61.50
42147;DHT22;27815;43.410;11.852;2022-10-31T17:51:03;18.50;61.50
42147;DHT22;27815;43.410;11.852;2022-10-31T17:55:07;18.50;61.40
42147;DHT22;27815;43.410;11.852;2022-10-31T17:59:10;18.50;61.30
42147;DHT22;27815;43.410;11.852;2022-10-31T18:03:13;18.50;61.30
42147;DHT22;27815;43.410;11.852;2022-10-31T18:07:16;18.40;61.60
42147;DHT22;27815;43.410;11.852;2022-10-31T18:11:21;18.30;61.80
42147;DHT22;27815;43.410;11.852;2022-10-31T18:15:24;18.10;62.40
42147;DHT22;27815;43.410;11.852;2022-10-31T18:19:26;18.00;62.70
42147;DHT22;27815;43.410;11.852;2022-10-31T18:23:29;17.80;62.90
42147;DHT22;27815;43.410;11.852;2022-10-31T18:27:33;17.60;62.90
42147;DHT22;27815;43.410;11.852;2022-10-31T18:31:36;17.40;63.30
42147;DHT22;27815;43.410;11.852;2022-10-31T18:35:39;17.30;63.70
42147;DHT22;27815;43.410;11.852;2022-10-31T18:39:43;17.10;64.00
42147;DHT22;27815;43.410;11.852;2022-10-31T18:43:50;17.00;64.40
42147;DHT22;27815;43.410;11.852;2022-10-31T18:48:01;16.80;64.90
42147;DHT22;27815;43.410;11.852;2022-10-31T18:52:37;16.80;65.30
42147;DHT22;27815;43.410;11.852;2022-10-31T18:56:41;16.80;65.60
42147;DHT22;27815;43.410;11.852;2022-10-31T19:00:51;16.90;65.80
42147;DHT22;27815;43.410;11.852;2022-10-31T19:05:08;16.90;66.10
42147;DHT22;27815;43.410;11.852;2022-10-31T19:09:12;17.00;66.30
42147;DHT22;27815;43.410;11.852;2022-10-31T19:13:15;17.00;66.40
42147;DHT22;27815;43.410;11.852;2022-10-31T19:17:19;17.10;66.20
42147;DHT22;27815;43.410;11.852;2022-10-31T19:21:23;17.10;66.10
42147;DHT22;27815;43.410;11.852;2022-10-31T19:25:26;17.10;66.10
42147;DHT22;27815;43.410;11.852;2022-10-31T19:29:29;17.10;66.20
42147;DHT22;27815;43.410;11.852;2022-10-31T19:33:32;17.10;66.10
42147;DHT22;27815;43.410;11.852;2022-10-31T19:37:38;17.10;66.00
42147;DHT22;27815;43.410;11.852;2022-10-31T19:41:47;17.00;66.00
42147;DHT22;27815;43.410;11.852;2022-10-31T19:46:00;17.00;66.00
42147;DHT22;27815;43.410;11.852;2022-10-31T19:50:03;17.00;66.10
42147;DHT22;27815;43.410;11.852;2022-10-31T19:54:06;16.90;66.20
42147;DHT22;27815;43.410;11.852;2022-10-31T19:58:11;16.50;66.90
42147;DHT22;27815;43.410;11.852;2022-10-31T20:02:15;16.30;67.10
42147;DHT22;27815;43.410;11.852;2022-10-31T20:06:35;16.20;67.10
42147;DHT22;27815;43.410;11.852;2022-10-31T20:10:38;16.00;67.30
42147;DHT22;27815;43.410;11.852;2022-10-31T20:14:47;15.80;67.30
42147;DHT22;27815;43.410;11.852;2022-10-31T20:18:51;15.70;67.80
42147;DHT22;27815;43.410;11.852;2022-10-31T20:22:54;15.60;67.80
42147;DHT22;27815;43.410;11.852;2022-10-31T20:26:57;15.50;68.10
42147;DHT22;27815;43.410;11.852;2022-10-31T20:31:05;15.40;68.70
42147;DHT22;27815;43.410;11.852;2022-10-31T20:35:20;15.50;68.80
42147;DHT22;27815;43.410;11.852;2022-10-31T20:39:33;15.60;69.00
42147;DHT22;27815;43.410;11.852;2022-10-31T20:44:02;15.60;68.80
42147;DHT22;27815;43.410;11.852;2022-10-31T20:48:05;15.70;68.40
42147;DHT22;27815;43.410;11.852;2022-10-31T20:52:08;15.80;68.40
42147;DHT22;27815;43.410;11.852;2022-10-31T20:56:13;15.80;68.20
42147;DHT22;27815;43.410;11.852;2022-10-31T21:00:17;15.70;68.60
42147;DHT22;27815;43.410;11.852;2022-10-31T21:04:20;15.60;68.80
42147;DHT22;27815;43.410;11.852;2022-10-31T21:08:23;15.50;69.00
42147;DHT22;27815;43.410;11.852;2022-10-31T21:12:26;15.40;69.40
42147;DHT22;27815;43.410;11.852;2022-10-31T21:16:30;15.30;69.50
42147;DHT22;27815;43.410;11.852;2022-10-31T21:20:39;15.20;69.50
42147;DHT22;27815;43.410;11.852;2022-10-31T21:24:42;15.20;69.40
42147;DHT22;27815;43.410;11.852;2022-10-31T21:28:46;15.10;69.30
42147;DHT22;27815;43.410;11.852;2022-10-31T21:32:49;15.00;69.60
42147;DHT22;27815;43.410;11.852;2022-10-31T21:36:52;15.00;69.80
42147;DHT22;27815;43.410;11.852;2022-10-31T21:41:17;14.80;69.90
42147;DHT22;27815;43.410;11.852;2022-10-31T21:45:20;14.70;70.50
42147;DHT22;27815;43.410;11.852;2022-10-31T21:49:23;14.60;70.20
42147;DHT22;27815;43.410;11.852;2022-10-31T21:53:26;14.50;70.20
42147;DHT22;27815;43.410;11.852;2022-10-31T21:57:48;14.40;70.40
42147;DHT22;27815;43.410;11.852;2022-10-31T22:01:51;14.40;70.70
42147;DHT22;27815;43.410;11.852;2022-10-31T22:05:54;14.30;71.10
42147;DHT22;27815;43.410;11.852;2022-10-31T22:10:02;14.30;71.30
42147;DHT22;27815;43.410;11.852;2022-10-31T22:14:05;14.40;71.30
42147;DHT22;27815;43.410;11.852;2022-10-31T22:18:08;14.30;71.10
42147;DHT22;27815;43.410;11.852;2022-10-31T22:22:11;14.30;71.10
42147;DHT22;27815;43.410;11.852;2022-10-31T22:26:15;14.20;71.40
42147;DHT22;27815;43.410;11.852;2022-10-31T22:30:18;14.10;71.50
42147;DHT22;27815;43.410;11.852;2022-10-31T22:34:21;14.10;71.80
42147;DHT22;27815;43.410;11.852;2022-10-31T22:38:24;14.00;71.90
42147;DHT22;27815;43.410;11.852;2022-10-31T22:42:26;14.00;71.80
42147;DHT22;27815;43.410;11.852;2022-10-31T22:46:33;14.00;71.90
42147;DHT22;27815;43.410;11.852;2022-10-31T22:50:36;14.00;72.00
42147;DHT22;27815;43.410;11.852;2022-10-31T22:54:39;13.90;70.90
42147;DHT22;27815;43.410;11.852;2022-10-31T22:58:42;13.80;71.80
42147;DHT22;27815;43.410;11.852;2022-10-31T23:02:45;13.70;72.10
42147;DHT22;27815;43.410;11.852;2022-10-31T23:06:48;13.60;72.10
42147;DHT22;27815;43.410;11.852;2022-10-31T23:10:51;13.60;72.50
42147;DHT22;27815;43.410;11.852;2022-10-31T23:14:54;13.60;72.60
42147;DHT22;27815;43.410;11.852;2022-10-31T23:18:57;13.60;72.80
42147;DHT22;27815;43.410;11.852;2022-10-31T23:23:01;13.60;73.10
42147;DHT22;27815;43.410;11.852;2022-10-31T23:27:16;13.60;73.20
42147;DHT22;27815;43.410;11.852;2022-10-31T23:31:19;13.60;73.40
42147;DHT22;27815;43.410;11.852;2022-10-31T23:35:22;13.60;73.40
42147;DHT22;27815;43.410;11.852;2022-10-31T23:39:25;13.60;73.60
42147;DHT22;27815;43.410;11.852;2022-10-31T23:43:28;13.50;73.70
42147;DHT22;27815;43.410;11.852;2022-10-31T23:47:31;13.50;73.80
42147;DHT22;27815;43.410;11.852;2022-10-31T23:51:34;13.60;73.90
42147;DHT22;27815;43.410;11.852;2022-10-31T23:55:37;13.40;74.00
42147;DHT22;27815;43.410;11.852;2022-10-31T23:59:40;13.30;73.90
